LFRV/VNE METAR and TAF weather

Enter ICAO airport designator
Station Type Date Time Source
LFRV METAR 2020/01/20 22:00 UTC NOAA

LFRV 202200Z AUTO 03013KT CAVOK 03/01 Q1042


Station Type Date Time Source
LFRV Decoded METAR 2020/01/20 22:00 UTC NOAA

Station name not available
Jan 20, 2020 - 05:00 PM EST / 2020.01.20 2200 UTC
Wind: from the NNE (030 degrees) at 15 MPH (13 KT):0
Visibility: greater than 7 mile(s):0
Temperature: 37 F (3 C)
Dew Point: 33 F (1 C)
Relative Humidity: 86%
Pressure (altimeter): 30.77 in. Hg (1042 hPa)
ob: LFRV 202200Z AUTO 03013KT CAVOK 03/01 Q1042
cycle: 22

Station Type Date Time Source
LFRV TAF UTC NOAA

Error!

Example: see airport list